createdAt,value
2019-05-09T00:02:21.046Z,99635.83
2019-05-09T00:04:48.816Z,99633.17
2019-05-09T00:07:16.158Z,99635.73
2019-05-09T00:09:44.140Z,99634.82
2019-05-09T00:12:11.215Z,99635.63
2019-05-09T00:14:38.161Z,99641.33
2019-05-09T00:17:06.775Z,99642.17
2019-05-09T00:19:50.987Z,99643.91
2019-05-09T00:22:18.115Z,99639.50
2019-05-09T00:24:45.041Z,99636.84
2019-05-09T00:27:14.082Z,99637.70
2019-05-09T00:29:46.176Z,99638.61
2019-05-09T00:32:30.647Z,99638.14
2019-05-09T00:35:20.289Z,99643.38
2019-05-09T00:37:55.029Z,99640.31
2019-05-09T00:40:23.830Z,99635.50
2019-05-09T00:42:52.837Z,99631.16
2019-05-09T00:45:27.811Z,99634.69
2019-05-09T00:47:54.759Z,99637.76
2019-05-09T00:50:23.553Z,99633.88
2019-05-09T00:52:53.693Z,99633.05
2019-05-09T00:55:20.883Z,99635.72
2019-05-09T00:57:47.966Z,99635.28
2019-05-09T01:00:16.575Z,99637.46
2019-05-09T01:02:45.339Z,99640.97
2019-05-09T01:05:13.231Z,99640.97
2019-05-09T01:07:40.473Z,99639.63
2019-05-09T01:10:08.150Z,99629.97
2019-05-09T01:12:35.104Z,99632.11
2019-05-09T01:15:03.342Z,99622.91
2019-05-09T01:17:30.693Z,99628.12
2019-05-09T01:19:58.019Z,99628.95
2019-05-09T01:22:25.016Z,99632.80
2019-05-09T01:24:53.391Z,99631.42
2019-05-09T01:27:20.525Z,99635.73
2019-05-09T01:29:48.251Z,99636.56
2019-05-09T01:32:23.745Z,99629.54
2019-05-09T01:34:53.095Z,99629.09
2019-05-09T01:37:20.187Z,99628.17
2019-05-09T01:39:47.131Z,99632.97
2019-05-09T01:42:14.100Z,99630.29
2019-05-09T01:44:41.093Z,99634.09
2019-05-09T01:47:08.576Z,99639.25
2019-05-09T01:49:35.527Z,99636.16
2019-05-09T01:52:03.532Z,99639.19
2019-05-09T01:54:33.222Z,99632.20
2019-05-09T01:57:00.343Z,99637.89
2019-05-09T01:59:27.353Z,99632.23
2019-05-09T02:01:54.389Z,99638.31
2019-05-09T02:04:21.370Z,99637.03
2019-05-09T02:06:48.365Z,99640.45
2019-05-09T02:09:15.301Z,99640.44
2019-05-09T02:11:45.509Z,99636.50
2019-05-09T02:14:13.596Z,99636.94
2019-05-09T02:16:54.463Z,99641.68
2019-05-09T02:19:28.584Z,99634.17
2019-05-09T02:21:55.559Z,99633.55
2019-05-09T02:24:23.403Z,99641.31
2019-05-09T02:26:50.511Z,99635.59
2019-05-09T02:29:17.487Z,99641.18
2019-05-09T02:31:44.897Z,99638.06
2019-05-09T02:34:14.882Z,99635.81
2019-05-09T02:36:40.823Z,99629.19
2019-05-09T02:39:09.033Z,99632.64
2019-05-09T02:41:38.859Z,99623.44
2019-05-09T02:44:05.137Z,99625.08
2019-05-09T02:46:38.674Z,99620.55
2019-05-09T02:49:08.542Z,99617.76
2019-05-09T02:51:34.617Z,99614.08
2019-05-09T02:54:01.622Z,99616.59
2019-05-09T02:56:29.647Z,99612.99
2019-05-09T02:59:09.301Z,99614.59
2019-05-09T03:02:00.845Z,99622.70
2019-05-09T03:04:28.571Z,99619.09
2019-05-09T03:06:59.637Z,99617.12
2019-05-09T03:09:28.439Z,99616.10
2019-05-09T03:11:54.781Z,99614.64
2019-05-09T03:14:21.734Z,99615.92
2019-05-09T03:16:49.375Z,99611.55
2019-05-09T03:19:19.455Z,99614.92
2019-05-09T03:21:50.308Z,99608.30
2019-05-09T03:24:18.506Z,99606.56
2019-05-09T03:26:50.062Z,99608.17
2019-05-09T03:29:29.240Z,99615.03
2019-05-09T03:31:59.760Z,99605.37
2019-05-09T03:34:24.996Z,99606.55
2019-05-09T03:36:52.039Z,99601.30
2019-05-09T03:39:20.175Z,99600.42
2019-05-09T03:41:48.746Z,99604.77
2019-05-09T03:44:17.853Z,99599.02
2019-05-09T03:47:08.417Z,99590.34
2019-05-09T03:49:37.543Z,99593.34
2019-05-09T03:52:07.538Z,99587.59
2019-05-09T03:54:34.774Z,99590.47
2019-05-09T03:57:08.803Z,99590.50
2019-05-09T03:59:37.868Z,99594.84
2019-05-09T04:02:04.651Z,99590.54
2019-05-09T04:04:31.628Z,99594.00
2019-05-09T04:06:58.602Z,99591.88
2019-05-09T04:09:27.317Z,99593.14
2019-05-09T04:11:54.496Z,99593.64
2019-05-09T04:14:24.536Z,99594.58
2019-05-09T04:16:51.579Z,99601.62
2019-05-09T04:19:20.403Z,99599.08
2019-05-09T04:21:48.461Z,99594.50
2019-05-09T04:24:17.585Z,99596.91
2019-05-09T04:26:52.699Z,99600.16
2019-05-09T04:29:19.671Z,99605.11
2019-05-09T04:31:48.324Z,99608.32
2019-05-09T04:34:15.498Z,99607.50
2019-05-09T04:36:42.440Z,99610.20
2019-05-09T04:39:12.896Z,99608.55
2019-05-09T04:41:41.076Z,99608.16
2019-05-09T04:44:16.681Z,99607.30
2019-05-09T04:46:40.045Z,99610.31
2019-05-09T04:49:08.172Z,99611.14
2019-05-09T04:51:39.260Z,99615.02
2019-05-09T04:54:07.398Z,99611.11
2019-05-09T04:56:38.197Z,99614.17
2019-05-09T04:59:07.341Z,99613.80
2019-05-09T05:02:08.503Z,99612.64
2019-05-09T05:04:37.292Z,99616.33
2019-05-09T05:07:07.627Z,99611.31
2019-05-09T05:09:34.646Z,99614.98
2019-05-09T05:12:02.727Z,99615.20
2019-05-09T05:14:30.779Z,99614.48
2019-05-09T05:17:06.606Z,99619.03
2019-05-09T05:19:30.997Z,99620.51
2019-05-09T05:22:00.558Z,99618.88
2019-05-09T05:24:38.116Z,99612.84
2019-05-09T05:27:04.825Z,99619.46
2019-05-09T05:29:31.782Z,99614.70
2019-05-09T05:32:00.673Z,99622.14
2019-05-09T05:34:35.165Z,99616.20
2019-05-09T05:37:02.109Z,99614.63
2019-05-09T05:39:29.104Z,99612.15
2019-05-09T05:41:57.651Z,99614.50
2019-05-09T05:44:33.818Z,99614.17
2019-05-09T05:47:19.194Z,99614.75
2019-05-09T05:49:48.633Z,99607.47
2019-05-09T05:52:15.243Z,99611.94
2019-05-09T05:54:42.210Z,99617.66
2019-05-09T05:57:09.195Z,99611.56
2019-05-09T05:59:40.910Z,99619.93
2019-05-09T06:02:08.642Z,99621.29
2019-05-09T06:04:38.180Z,99621.33
2019-05-09T06:07:05.035Z,99617.84
2019-05-09T06:09:32.286Z,99614.83
2019-05-09T06:11:59.255Z,99622.77
2019-05-09T06:14:28.426Z,99625.84
2019-05-09T06:16:55.211Z,99621.91
2019-05-09T06:19:22.660Z,99627.23
2019-05-09T06:21:52.366Z,99627.33
2019-05-09T06:24:18.520Z,99631.33
2019-05-09T06:26:47.682Z,99625.27
2019-05-09T06:29:14.366Z,99628.84
2019-05-09T06:31:41.319Z,99634.17
2019-05-09T06:34:08.541Z,99635.55
2019-05-09T06:36:38.908Z,99629.06
2019-05-09T06:39:08.284Z,99629.16
2019-05-09T06:41:37.792Z,99628.78
2019-05-09T06:44:17.059Z,99622.70
2019-05-09T06:46:49.527Z,99630.23
2019-05-09T06:49:28.198Z,99625.91
2019-05-09T06:51:50.293Z,99621.13
2019-05-09T06:54:17.584Z,99625.14
2019-05-09T06:56:44.649Z,99626.08
2019-05-09T06:59:11.620Z,99631.79
2019-05-09T07:01:53.596Z,99624.78
2019-05-09T07:04:40.278Z,99633.13
2019-05-09T07:07:14.218Z,99621.77
2019-05-09T07:09:44.570Z,99627.05
2019-05-09T07:12:11.526Z,99625.30
2019-05-09T07:14:41.733Z,99621.80
2019-05-09T07:17:08.195Z,99622.24
2019-05-09T07:19:38.014Z,99614.34
2019-05-09T07:22:18.454Z,99613.91
2019-05-09T07:25:10.693Z,99610.41
2019-05-09T07:27:35.472Z,99623.58
2019-05-09T07:30:10.923Z,99616.56
2019-05-09T07:32:45.749Z,99610.42
2019-05-09T07:35:12.743Z,99601.20
2019-05-09T07:37:39.703Z,99599.45
2019-05-09T07:40:08.379Z,99600.76
2019-05-09T07:42:35.519Z,99597.68
2019-05-09T07:45:02.621Z,99601.66
2019-05-09T07:47:30.674Z,99602.99
2019-05-09T07:49:58.539Z,99602.97
2019-05-09T07:52:28.240Z,99608.65
2019-05-09T07:54:54.585Z,99599.39
2019-05-09T07:57:21.564Z,99601.56
2019-05-09T07:59:48.659Z,99598.88
2019-05-09T08:02:17.673Z,99601.45
2019-05-09T08:04:44.557Z,99605.36
2019-05-09T08:07:11.529Z,99611.87
2019-05-09T08:09:38.870Z,99602.94
2019-05-09T08:12:07.525Z,99606.39
2019-05-09T08:14:34.621Z,99609.80
2019-05-09T08:17:01.594Z,99602.17
2019-05-09T08:19:28.650Z,99602.91
2019-05-09T08:21:57.509Z,99601.95
2019-05-09T08:24:24.538Z,99601.06
2019-05-09T08:26:51.495Z,99594.93
2019-05-09T08:29:19.995Z,99590.10
2019-05-09T08:31:49.184Z,99590.08
2019-05-09T08:34:18.543Z,99586.40
2019-05-09T08:36:47.739Z,99590.89
2019-05-09T08:39:15.020Z,99593.21
2019-05-09T08:41:42.021Z,99593.67
2019-05-09T08:44:09.017Z,99595.91
2019-05-09T08:46:37.741Z,99599.34
2019-05-09T08:49:05.012Z,99596.16
2019-05-09T08:51:55.896Z,99597.06
2019-05-09T08:54:29.722Z,99595.23
2019-05-09T08:56:58.176Z,99602.13
2019-05-09T08:59:27.510Z,99597.02
2019-05-09T09:02:14.106Z,99597.78
2019-05-09T09:04:23.330Z,99597.20
2019-05-09T09:06:50.424Z,99593.93
2019-05-09T09:09:18.035Z,99596.44
2019-05-09T09:11:47.717Z,99581.59
2019-05-09T09:14:14.907Z,99594.50
2019-05-09T09:16:42.011Z,99579.06
2019-05-09T09:19:09.115Z,99578.86
2019-05-09T09:21:38.659Z,99579.80
2019-05-09T09:24:04.923Z,99578.52
2019-05-09T09:26:31.936Z,99587.38
2019-05-09T09:28:58.925Z,99597.08
2019-05-09T09:31:28.560Z,99591.23
2019-05-09T09:33:55.711Z,99595.03
2019-05-09T09:36:22.707Z,99589.00
2019-05-09T09:38:49.667Z,99585.25
2019-05-09T09:41:18.127Z,99579.48
2019-05-09T09:43:47.492Z,99583.50
2019-05-09T09:46:14.963Z,99586.15
2019-05-09T09:48:42.091Z,99583.66
2019-05-09T09:51:09.026Z,99590.66
2019-05-09T09:53:38.247Z,99584.70
2019-05-09T09:56:05.124Z,99581.87
2019-05-09T09:58:32.162Z,99575.84
2019-05-09T10:01:13.009Z,99585.37
2019-05-09T10:03:40.027Z,99590.14
2019-05-09T10:06:07.099Z,99591.38
2019-05-09T10:08:34.055Z,99588.44
2019-05-09T10:11:01.060Z,99589.06
2019-05-09T10:13:28.678Z,99590.55
2019-05-09T10:16:05.031Z,99589.42
2019-05-09T10:18:38.887Z,99596.83
2019-05-09T10:21:15.889Z,99598.64
2019-05-09T10:23:42.940Z,99594.83
2019-05-09T10:26:11.026Z,99597.22
2019-05-09T10:28:38.184Z,99596.11
2019-05-09T10:31:05.177Z,99597.81
2019-05-09T10:33:32.190Z,99594.31
2019-05-09T10:36:04.857Z,99598.12
2019-05-09T10:38:32.855Z,99606.27
2019-05-09T10:41:01.670Z,99605.58
2019-05-09T10:43:39.200Z,99597.30
2019-05-09T10:46:48.332Z,99600.41
2019-05-09T10:49:01.998Z,99602.41
2019-05-09T10:51:28.981Z,99607.55
2019-05-09T10:53:58.519Z,99616.40
2019-05-09T10:56:27.837Z,99608.68
2019-05-09T10:58:54.150Z,99612.03
2019-05-09T11:02:02.406Z,99614.02
2019-05-09T11:04:29.360Z,99617.78
2019-05-09T11:06:58.304Z,99616.30
2019-05-09T11:09:25.288Z,99613.94
2019-05-09T11:11:52.268Z,99615.91
2019-05-09T11:14:32.151Z,99616.33
2019-05-09T11:16:54.270Z,99614.36
2019-05-09T11:19:18.310Z,99609.30
2019-05-09T11:21:47.702Z,99611.27
2019-05-09T11:24:14.651Z,99614.66
2019-05-09T11:27:00.005Z,99612.59
2019-05-09T11:29:29.990Z,99618.50
2019-05-09T11:31:58.727Z,99620.70
2019-05-09T11:34:25.819Z,99616.89
2019-05-09T11:36:52.836Z,99621.17
2019-05-09T11:39:35.094Z,99620.17
2019-05-09T11:41:48.930Z,99614.20
2019-05-09T11:44:18.280Z,99614.92
2019-05-09T11:46:44.928Z,99613.97
2019-05-09T11:49:11.900Z,99619.81
2019-05-09T11:51:38.882Z,99630.72
2019-05-09T11:54:08.878Z,99625.41
2019-05-09T11:56:34.766Z,99632.17
2019-05-09T11:59:01.756Z,99637.16
2019-05-09T12:01:29.441Z,99639.47
2019-05-09T12:03:57.815Z,99643.39
2019-05-09T12:06:25.314Z,99650.56
2019-05-09T12:08:52.304Z,99654.32
2019-05-09T12:11:19.422Z,99654.61
2019-05-09T12:13:48.552Z,99661.66
2019-05-09T12:16:18.095Z,99669.48
2019-05-09T12:18:44.387Z,99665.45
2019-05-09T12:21:19.316Z,99669.60
2019-05-09T12:23:48.796Z,99675.83
2019-05-09T12:26:17.746Z,99681.53
2019-05-09T12:28:44.547Z,99684.39
2019-05-09T12:31:11.505Z,99692.95
2019-05-09T12:33:38.526Z,99685.23
2019-05-09T12:36:05.617Z,99689.77
2019-05-09T12:38:32.626Z,99697.38
2019-05-09T12:41:00.583Z,99697.94
2019-05-09T12:43:28.357Z,99696.27
2019-05-09T12:45:57.653Z,99701.58
2019-05-09T12:48:24.444Z,99707.38
2019-05-09T12:50:51.479Z,99706.91
2019-05-09T12:53:19.035Z,99712.56
2019-05-09T12:55:47.575Z,99708.09
2019-05-09T12:58:27.654Z,99711.90
2019-05-09T13:00:58.380Z,99709.59
2019-05-09T13:03:27.594Z,99715.88
2019-05-09T13:05:54.429Z,99719.18
2019-05-09T13:08:21.518Z,99713.92
2019-05-09T13:10:48.882Z,99720.71
2019-05-09T13:13:18.424Z,99723.59
2019-05-09T13:15:58.739Z,99728.70
2019-05-09T13:18:45.571Z,99734.41
2019-05-09T13:21:13.859Z,99738.36
2019-05-09T13:23:40.963Z,99738.84
2019-05-09T13:26:08.428Z,99740.96
2019-05-09T13:28:37.689Z,99738.70
2019-05-09T13:31:04.373Z,99742.74
2019-05-09T13:33:31.387Z,99743.59
2019-05-09T13:35:58.512Z,99748.27
2019-05-09T13:38:29.097Z,99747.55
2019-05-09T13:40:58.494Z,99748.39
2019-05-09T13:43:27.938Z,99756.08
2019-05-09T13:45:54.179Z,99755.20
2019-05-09T13:48:30.371Z,99757.38
2019-05-09T13:50:50.108Z,99760.45
2019-05-09T13:53:19.237Z,99753.03
2019-05-09T13:55:48.352Z,99758.44
2019-05-09T13:58:15.302Z,99755.96
2019-05-09T14:00:55.915Z,99754.58
2019-05-09T14:03:11.261Z,99760.81
2019-05-09T14:05:38.338Z,99760.81
2019-05-09T14:08:08.165Z,99757.41
2019-05-09T14:10:34.206Z,99765.05
2019-05-09T14:13:09.349Z,99762.33
2019-05-09T14:15:30.035Z,99760.78
2019-05-09T14:17:58.249Z,99761.81
2019-05-09T14:20:27.175Z,99758.64
2019-05-09T14:22:54.335Z,99757.80
2019-05-09T14:25:21.343Z,99748.55
2019-05-09T14:27:51.483Z,99752.51
2019-05-09T14:30:19.738Z,99762.67
2019-05-09T14:32:49.516Z,99764.37
2019-05-09T14:35:18.240Z,99759.85
2019-05-09T14:37:49.230Z,99762.47
2019-05-09T14:40:17.609Z,99760.64
2019-05-09T14:42:44.915Z,99762.34
2019-05-09T14:45:12.115Z,99766.27
2019-05-09T14:47:42.325Z,99771.31
2019-05-09T14:50:09.940Z,99766.91
2019-05-09T14:52:38.363Z,99763.30
2019-05-09T14:55:08.215Z,99769.88
2019-05-09T14:57:34.889Z,99775.52
2019-05-09T15:00:01.945Z,99778.28
2019-05-09T15:02:28.963Z,99777.53
2019-05-09T15:04:58.478Z,99778.12
2019-05-09T15:07:25.177Z,99778.18
2019-05-09T15:09:56.910Z,99779.92
2019-05-09T15:12:25.583Z,99778.67
2019-05-09T15:14:52.625Z,99779.58
2019-05-09T15:17:19.616Z,99790.19
2019-05-09T15:19:57.339Z,99788.09
2019-05-09T15:23:19.699Z,99783.31
2019-05-09T15:25:48.086Z,99788.98
2019-05-09T15:28:17.431Z,99788.23
2019-05-09T15:30:44.082Z,99789.26
2019-05-09T15:33:11.045Z,99787.06
2019-05-09T15:35:40.393Z,99790.02
2019-05-09T15:38:08.578Z,99791.09
2019-05-09T15:40:38.505Z,99792.22
2019-05-09T15:43:04.690Z,99799.39
2019-05-09T15:45:36.279Z,99804.41
2019-05-09T15:48:07.751Z,99806.10
2019-05-09T15:50:34.839Z,99813.27
2019-05-09T15:53:01.946Z,99807.31
2019-05-09T15:55:28.887Z,99822.71
2019-05-09T15:57:57.667Z,99835.67
2019-05-09T16:00:28.483Z,99840.63
2019-05-09T16:02:55.025Z,99841.55
2019-05-09T16:05:21.967Z,99849.60
2019-05-09T16:07:49.002Z,99856.64
2019-05-09T16:10:17.897Z,99856.91
2019-05-09T16:12:44.928Z,99857.88
2019-05-09T16:15:12.502Z,99862.89
2019-05-09T16:18:18.210Z,99861.74
2019-05-09T16:20:45.270Z,99866.36
2019-05-09T16:23:12.334Z,99858.08
2019-05-09T16:25:39.627Z,99864.07
2019-05-09T16:28:08.013Z,99861.69
2019-05-09T16:30:41.039Z,99868.55
2019-05-09T16:33:08.287Z,99864.32
2019-05-09T16:35:37.951Z,99859.61
2019-05-09T16:38:07.984Z,99859.72
2019-05-09T16:40:51.976Z,99859.31
2019-05-09T16:43:18.917Z,99855.66
2019-05-09T16:45:47.632Z,99848.95
2019-05-09T16:48:14.749Z,99850.33
2019-05-09T16:50:56.035Z,99859.58
2019-05-09T16:53:10.638Z,99859.97
2019-05-09T16:55:38.968Z,99855.19
2019-05-09T16:58:05.946Z,99849.97
2019-05-09T17:00:44.013Z,99852.00
2019-05-09T17:03:11.146Z,99855.87
2019-05-09T17:05:38.126Z,99862.36
2019-05-09T17:08:05.412Z,99872.09
2019-05-09T17:10:32.407Z,99882.19
2019-05-09T17:16:32.368Z,99886.74
2019-05-09T17:18:59.345Z,99895.73
2019-05-09T17:21:47.924Z,99896.22
2019-05-09T17:25:04.562Z,99894.55
2019-05-09T17:27:31.671Z,99904.27
2019-05-09T17:29:58.647Z,99898.17
2019-05-09T17:32:25.584Z,99897.80
2019-05-09T17:34:52.587Z,99900.09
2019-05-09T17:37:19.567Z,99913.39
2019-05-09T17:39:46.580Z,99915.66
2019-05-09T17:42:15.431Z,99920.19
2019-05-09T17:44:42.503Z,99929.06
2019-05-09T17:47:09.717Z,99930.03
2019-05-09T17:49:37.461Z,99935.73
2019-05-09T17:52:07.565Z,99944.15
2019-05-09T17:54:34.584Z,99952.14
2019-05-09T17:57:01.633Z,99956.17
2019-05-09T17:59:29.430Z,99959.81
2019-05-09T18:01:57.755Z,99965.23
2019-05-09T18:04:25.418Z,99973.33
2019-05-09T18:06:53.513Z,99978.72
2019-05-09T18:09:20.692Z,99980.97
2019-05-09T18:11:48.311Z,99984.53
2019-05-09T18:14:18.520Z,99996.44
2019-05-09T18:16:47.651Z,100000.41
2019-05-09T18:19:14.421Z,100004.78
2019-05-09T18:21:50.801Z,100011.39
2019-05-09T18:24:10.597Z,100008.27
2019-05-09T18:26:38.370Z,100020.59
2019-05-09T18:29:11.720Z,100028.52
2019-05-09T18:32:16.809Z,100032.03
2019-05-09T18:34:44.022Z,100033.33
2019-05-09T18:37:11.202Z,100044.77
2019-05-09T18:39:38.319Z,100050.03
2019-05-09T18:42:05.420Z,100052.64
2019-05-09T18:44:32.482Z,100054.39
2019-05-09T18:46:59.525Z,100059.66
2019-05-09T18:49:26.616Z,100063.14
2019-05-09T18:52:03.471Z,100063.09
2019-05-09T18:54:22.504Z,100064.36
2019-05-09T18:56:49.461Z,100073.53
2019-05-09T18:59:16.435Z,100079.22
2019-05-09T19:01:43.430Z,100075.66
2019-05-09T19:04:10.561Z,100074.30
2019-05-09T19:06:39.812Z,100080.44
2019-05-09T19:09:06.843Z,100083.44
2019-05-09T19:11:34.116Z,100083.83
2019-05-09T19:14:01.943Z,100083.36
2019-05-09T19:16:38.334Z,100085.56
2019-05-09T19:19:13.066Z,100090.38
2019-05-09T19:22:21.492Z,100095.66
2019-05-09T19:24:37.138Z,100093.44
2019-05-09T19:27:04.343Z,100098.25
2019-05-09T19:29:31.475Z,100095.19
2019-05-09T19:31:58.610Z,100103.09
2019-05-09T19:34:25.600Z,100104.41
2019-05-09T19:36:52.613Z,100110.55
2019-05-09T19:39:19.844Z,100117.13
2019-05-09T19:41:46.948Z,100122.84
2019-05-09T19:44:14.073Z,100129.86
2019-05-09T19:46:41.245Z,100130.75
2019-05-09T19:49:09.615Z,100144.38
2019-05-09T19:51:36.666Z,100141.30
2019-05-09T19:54:12.027Z,100145.69
2019-05-09T19:56:40.822Z,100154.49
2019-05-09T19:59:08.598Z,100155.83
2019-05-09T20:01:35.884Z,100161.12
2019-05-09T20:04:07.052Z,100157.23
2019-05-09T20:06:34.007Z,100163.82
2019-05-09T20:09:08.686Z,100158.10
2019-05-09T20:11:57.769Z,100165.14
2019-05-09T20:14:37.039Z,100168.22
2019-05-09T20:17:04.054Z,100173.50
2019-05-09T20:19:32.639Z,100174.38
2019-05-09T20:22:00.236Z,100177.89
2019-05-09T20:24:47.174Z,100181.39
2019-05-09T20:27:14.266Z,100179.63
2019-05-09T20:29:41.253Z,100179.19
2019-05-09T20:32:08.473Z,100184.48
2019-05-09T20:34:35.574Z,100189.30
2019-05-09T20:37:03.096Z,100195.52
2019-05-09T20:39:31.002Z,100195.02
2019-05-09T20:41:58.424Z,100189.29
2019-05-09T20:44:25.407Z,100196.31
2019-05-09T20:46:52.896Z,100199.40
2019-05-09T20:49:20.241Z,100198.50
2019-05-09T20:51:50.944Z,100209.49
2019-05-09T20:54:20.848Z,100210.82
2019-05-09T20:56:47.062Z,100219.16
2019-05-09T20:59:24.226Z,100219.10
2019-05-09T21:01:51.694Z,100220.41
2019-05-09T21:04:37.221Z,100220.91
2019-05-09T21:07:04.187Z,100225.69
2019-05-09T21:09:31.190Z,100230.02
2019-05-09T21:11:58.266Z,100227.80
2019-05-09T21:14:25.275Z,100235.25
2019-05-09T21:16:52.274Z,100234.34
2019-05-09T21:20:02.489Z,100233.45
2019-05-09T21:22:29.612Z,100235.64
2019-05-09T21:24:56.725Z,100239.11
2019-05-09T21:27:23.822Z,100242.15
2019-05-09T21:29:50.917Z,100246.07
2019-05-09T21:32:18.278Z,100246.47
2019-05-09T21:34:45.393Z,100242.91
2019-05-09T21:37:13.990Z,100245.94
2019-05-09T21:39:41.250Z,100245.08
2019-05-09T21:42:08.243Z,100254.27
2019-05-09T21:44:35.318Z,100257.29
2019-05-09T21:47:02.316Z,100254.17
2019-05-09T21:49:31.060Z,100265.13
2019-05-09T21:51:58.688Z,100258.47
2019-05-09T21:54:25.675Z,100267.20
2019-05-09T21:56:52.755Z,100268.49
2019-05-09T21:59:27.492Z,100272.41
2019-05-09T22:01:54.994Z,100271.03
2019-05-09T22:04:22.275Z,100268.75
2019-05-09T22:06:49.609Z,100274.94
2019-05-09T22:09:17.113Z,100268.73
2019-05-09T22:11:44.176Z,100277.44
2019-05-09T22:14:12.650Z,100282.17
2019-05-09T22:16:39.701Z,100280.79
2019-05-09T22:19:06.811Z,100286.95
2019-05-09T22:21:33.896Z,100289.17
2019-05-09T22:24:03.672Z,100293.94
2019-05-09T22:27:04.513Z,100301.32
2019-05-09T22:29:31.544Z,100293.81
2019-05-09T22:31:58.486Z,100293.69
2019-05-09T22:34:25.479Z,100306.45
2019-05-09T22:36:52.628Z,100300.69
2019-05-09T22:39:19.610Z,100302.44
2019-05-09T22:41:46.583Z,100308.13
2019-05-09T22:44:13.701Z,100311.19
2019-05-09T22:46:40.722Z,100310.83
2019-05-09T22:49:07.731Z,100313.52
2019-05-09T22:51:34.843Z,100309.19
2019-05-09T22:54:12.203Z,100309.71
2019-05-09T22:56:30.709Z,100312.77
2019-05-09T22:58:57.756Z,100315.86
2019-05-09T23:01:24.708Z,100318.05
2019-05-09T23:03:51.664Z,100317.58
2019-05-09T23:06:18.688Z,100318.45
2019-05-09T23:08:52.440Z,100317.97
2019-05-09T23:11:19.425Z,100312.73
2019-05-09T23:14:12.217Z,100313.64
2019-05-09T23:16:40.416Z,100318.53
2019-05-09T23:19:15.637Z,100312.02
2019-05-09T23:21:42.613Z,100314.22
2019-05-09T23:24:30.283Z,100308.91
2019-05-09T23:26:57.251Z,100309.42
2019-05-09T23:29:26.016Z,100312.91
2019-05-09T23:32:15.225Z,100309.42
2019-05-09T23:34:43.979Z,100308.07
2019-05-09T23:37:10.984Z,100308.93
2019-05-09T23:39:41.071Z,100308.03
2019-05-09T23:42:08.281Z,100309.75
2019-05-09T23:44:35.238Z,100315.31
2019-05-09T23:47:04.044Z,100315.31
2019-05-09T23:49:35.855Z,100310.83
2019-05-09T23:52:02.822Z,100315.27
2019-05-09T23:54:49.642Z,100308.65
2019-05-09T23:57:34.670Z,100316.02
